Time;durP1;ratioP1;P1;durP2;ratioP2;P2;SDS_P1;SDS_P2;PMS_P1;PMS_P2;Temp;Humidity;BMP_temperature;BMP_pressure;BME280_temperature;BME280_humidity;BME280_pressure;Samples;Min_cycle;Max_cycle;Signal;HPM_P1;HPM_P2
2023/05/13 00:01:59;;;;;;;1.60;1.30;;;15.60;80.70;15.80;96314.00;;;;5037478;28;20208;-79
2023/05/13 00:04:28;;;;;;;1.47;1.30;;;15.60;80.80;15.80;96315.00;;;;5032882;28;20267;-79
2023/05/13 00:06:56;;;;;;;0.90;0.90;;;15.60;80.80;15.80;96304.00;;;;5031273;28;20212;-78
2023/05/13 00:09:23;;;;;;;1.17;1.17;;;15.60;81.00;15.80;96314.00;;;;5050147;28;20197;-79
2023/05/13 00:11:50;;;;;;;1.23;1.13;;;15.60;81.20;15.80;96318.00;;;;5038465;28;20304;-78
2023/05/13 00:14:18;;;;;;;1.00;1.00;;;15.60;80.90;15.80;96316.00;;;;5038896;28;20263;-79
2023/05/13 00:16:45;;;;;;;1.20;1.10;;;15.60;80.60;15.70;96309.00;;;;5036067;28;20226;-79
2023/05/13 00:19:14;;;;;;;1.10;1.10;;;15.60;80.70;15.70;96310.00;;;;5043452;28;20658;-80
2023/05/13 00:21:43;;;;;;;1.30;1.20;;;15.60;80.80;15.70;96309.00;;;;5027061;28;20573;-79
2023/05/13 00:24:10;;;;;;;1.20;1.10;;;15.60;80.70;15.70;96311.00;;;;5042209;28;20197;-79
2023/05/13 00:26:45;;;;;;;1.03;0.97;;;15.60;80.80;15.70;96313.00;;;;5018769;28;20736;-79
2023/05/13 00:29:12;;;;;;;1.53;1.10;;;15.60;80.70;15.70;96317.00;;;;5025406;28;20530;-78
2023/05/13 00:31:40;;;;;;;1.37;1.27;;;15.60;80.80;15.70;96320.00;;;;5022383;28;20224;-78
2023/05/13 00:34:07;;;;;;;1.23;1.13;;;15.50;80.60;15.70;96316.00;;;;5031231;28;20193;-78
2023/05/13 00:36:34;;;;;;;1.83;1.50;;;15.50;80.60;15.70;96324.00;;;;5048075;28;20307;-79
2023/05/13 00:39:03;;;;;;;1.13;1.13;;;15.50;80.80;15.70;96321.00;;;;5011258;28;20197;-79
2023/05/13 00:41:31;;;;;;;1.27;1.27;;;15.50;80.80;15.70;96316.00;;;;5041417;28;20262;-79
2023/05/13 00:43:58;;;;;;;1.37;1.27;;;15.50;80.80;15.70;96321.00;;;;5018766;28;20193;-79
2023/05/13 00:46:26;;;;;;;1.20;1.20;;;15.50;81.00;15.70;96319.00;;;;5056108;28;20217;-79
2023/05/13 00:48:55;;;;;;;0.90;0.90;;;15.50;81.00;15.70;96315.00;;;;5038589;28;20197;-79
2023/05/13 00:51:22;;;;;;;1.33;1.23;;;15.50;80.80;15.70;96320.00;;;;5017486;28;20744;-79
2023/05/13 00:53:51;;;;;;;1.50;1.40;;;15.50;80.80;15.70;96319.00;;;;5041254;28;20725;-79
2023/05/13 00:56:21;;;;;;;1.40;1.30;;;15.50;80.80;15.70;96318.00;;;;5026798;28;20696;-78
2023/05/13 00:58:49;;;;;;;1.27;1.20;;;15.50;80.80;15.70;96316.00;;;;5027061;28;20195;-79
2023/05/13 01:01:27;;;;;;;2.00;1.33;;;15.50;81.00;15.70;96314.00;;;;5038362;28;20713;-79
2023/05/13 01:04:09;;;;;;;1.50;1.40;;;15.50;80.60;15.70;96324.00;;;;5013503;28;20233;-79
2023/05/13 01:06:47;;;;;;;1.40;1.30;;;15.50;80.70;15.70;96323.00;;;;5041180;28;20225;-79
2023/05/13 01:09:38;;;;;;;1.97;1.80;;;15.50;80.90;15.70;96325.00;;;;5008819;28;20197;-78
2023/05/13 01:12:15;;;;;;;1.70;1.60;;;15.50;81.00;15.70;96321.00;;;;5017317;28;20198;-79
2023/05/13 01:14:52;;;;;;;1.50;1.40;;;15.50;80.80;15.70;96322.00;;;;5042920;28;20280;-78
2023/05/13 01:17:30;;;;;;;1.90;1.67;;;15.50;80.80;15.60;96320.00;;;;5011893;28;20227;-79
2023/05/13 01:20:03;;;;;;;1.83;1.73;;;15.50;80.90;15.60;96320.00;;;;5048355;28;20192;-79
2023/05/13 01:22:32;;;;;;;1.90;1.80;;;15.50;80.80;15.60;96318.00;;;;5028447;28;20207;-79
2023/05/13 01:25:01;;;;;;;2.87;2.00;;;15.50;80.40;15.60;96322.00;;;;5020284;28;20283;-79
2023/05/13 01:27:28;;;;;;;3.27;2.30;;;15.50;80.50;15.60;96320.00;;;;5037247;28;20693;-79
2023/05/13 01:29:57;;;;;;;2.40;2.10;;;15.50;80.40;15.60;96319.00;;;;5040425;28;20189;-78
2023/05/13 01:32:25;;;;;;;2.10;2.00;;;15.40;80.40;15.50;96320.00;;;;5033457;28;20192;-79
2023/05/13 01:34:55;;;;;;;2.13;2.00;;;15.40;80.70;15.50;96318.00;;;;5041642;28;20190;-79
2023/05/13 01:37:23;;;;;;;2.47;2.37;;;15.40;80.80;15.50;96311.00;;;;5018880;28;20748;-79
2023/05/13 01:39:52;;;;;;;2.30;2.20;;;15.40;80.90;15.50;96315.00;;;;5037780;28;20200;-79
2023/05/13 01:42:20;;;;;;;2.53;2.43;;;15.40;80.70;15.50;96318.00;;;;5024232;28;20232;-79
2023/05/13 01:44:47;;;;;;;2.97;2.70;;;15.40;80.70;15.50;96321.00;;;;5031420;28;20198;-79
2023/05/13 01:47:14;;;;;;;3.07;2.73;;;15.40;80.70;15.50;96324.00;;;;5043311;28;20226;-79
2023/05/13 01:49:42;;;;;;;3.23;2.77;;;15.40;80.60;15.50;96318.00;;;;5053856;28;20716;-80
2023/05/13 01:52:10;;;;;;;2.70;2.50;;;15.40;80.80;15.50;96326.00;;;;5029177;28;20204;-80
2023/05/13 01:54:38;;;;;;;2.63;2.53;;;15.40;81.00;15.50;96319.00;;;;5001964;28;20217;-78
2023/05/13 01:57:07;;;;;;;2.53;2.40;;;15.40;81.10;15.50;96326.00;;;;5043455;28;20220;-79
2023/05/13 01:59:35;;;;;;;2.80;2.60;;;15.40;81.10;15.50;96321.00;;;;5050405;28;20207;-79
2023/05/13 02:02:04;;;;;;;3.50;3.20;;;15.40;81.10;15.50;96320.00;;;;5010179;28;20597;-79
2023/05/13 02:04:31;;;;;;;3.20;3.00;;;15.40;81.10;15.50;96320.00;;;;5039658;28;20990;-80
2023/05/13 02:07:01;;;;;;;3.20;3.00;;;15.40;81.10;15.50;96312.00;;;;5015520;28;20225;-80
2023/05/13 02:09:28;;;;;;;3.23;3.03;;;15.40;81.10;15.50;96323.00;;;;5021161;28;20580;-79
2023/05/13 02:11:55;;;;;;;3.50;3.30;;;15.40;81.10;15.50;96321.00;;;;5046733;28;20224;-79
2023/05/13 02:14:24;;;;;;;3.57;3.37;;;15.40;81.10;15.50;96322.00;;;;5046555;28;20446;-79
2023/05/13 02:16:52;;;;;;;3.37;3.17;;;15.40;80.80;15.50;96325.00;;;;5033017;28;20311;-79
2023/05/13 02:19:19;;;;;;;3.20;3.00;;;15.40;80.90;15.50;96329.00;;;;5050363;28;20204;-79
2023/05/13 02:21:47;;;;;;;3.27;3.07;;;15.40;81.10;15.50;96325.00;;;;5019994;28;20227;-78
2023/05/13 02:24:14;;;;;;;3.57;3.27;;;15.40;81.10;15.50;96330.00;;;;5026852;28;20200;-79
2023/05/13 02:26:41;;;;;;;3.70;3.37;;;15.40;81.10;15.50;96326.00;;;;5041315;28;20643;-80
2023/05/13 02:29:08;;;;;;;3.40;3.20;;;15.40;81.20;15.50;96321.00;;;;5039630;28;20208;-80
2023/05/13 02:31:37;;;;;;;3.47;3.27;;;15.30;81.20;15.50;96332.00;;;;5040950;28;20705;-79
2023/05/13 02:34:05;;;;;;;3.43;2.77;;;15.40;81.10;15.50;96331.00;;;;5016187;28;20276;-79
2023/05/13 02:36:32;;;;;;;3.13;2.93;;;15.40;81.10;15.50;96321.00;;;;5034178;28;20662;-79
2023/05/13 02:39:01;;;;;;;3.10;2.90;;;15.30;80.80;15.50;96323.00;;;;5046448;28;20673;-78
2023/05/13 02:41:29;;;;;;;3.50;3.20;;;15.30;80.80;15.50;96330.00;;;;5024982;28;20813;-78
2023/05/13 02:43:56;;;;;;;3.07;2.87;;;15.30;80.80;15.50;96328.00;;;;5041543;28;20201;-79
2023/05/13 02:46:26;;;;;;;2.83;2.63;;;15.30;80.90;15.50;96321.00;;;;5039417;28;20295;-79
2023/05/13 02:48:55;;;;;;;2.80;2.60;;;15.30;81.10;15.50;96323.00;;;;5023503;28;20698;-79
2023/05/13 02:51:22;;;;;;;3.00;2.80;;;15.30;81.00;15.50;96319.00;;;;5043266;28;20200;-79
2023/05/13 02:53:50;;;;;;;2.90;2.70;;;15.30;80.90;15.50;96327.00;;;;5030617;28;20381;-79
2023/05/13 02:56:18;;;;;;;2.63;2.53;;;15.30;80.90;15.40;96327.00;;;;5036489;28;20221;-79
2023/05/13 02:58:46;;;;;;;2.90;2.70;;;15.30;81.00;15.40;96326.00;;;;5048976;28;20193;-79
2023/05/13 03:01:14;;;;;;;2.70;2.60;;;15.30;80.90;15.40;96327.00;;;;5043621;28;20665;-78
2023/05/13 03:03:41;;;;;;;2.83;2.70;;;15.30;80.80;15.40;96330.00;;;;5045577;28;20284;-79
2023/05/13 03:06:12;;;;;;;2.90;2.37;;;15.30;80.70;15.40;96326.00;;;;5042569;28;20300;-78
2023/05/13 03:08:39;;;;;;;2.43;2.33;;;15.30;80.60;15.40;96326.00;;;;5027582;28;20196;-79
2023/05/13 03:11:06;;;;;;;2.07;1.97;;;15.30;80.80;15.40;96328.00;;;;5022035;28;20194;-79
2023/05/13 03:13:34;;;;;;;3.33;2.57;;;15.30;80.80;15.40;96329.00;;;;5039987;28;20255;-79
2023/05/13 03:16:01;;;;;;;2.23;2.13;;;15.30;80.80;15.40;96326.00;;;;5045449;28;20307;-80
2023/05/13 03:18:30;;;;;;;2.90;2.70;;;15.30;80.80;15.40;96321.00;;;;5040851;28;20192;-79
2023/05/13 03:20:59;;;;;;;2.30;2.20;;;15.20;81.00;15.40;96326.00;;;;5031564;28;20228;-79
2023/05/13 03:23:29;;;;;;;2.63;2.53;;;15.20;81.00;15.40;96324.00;;;;5027894;28;20193;-79
2023/05/13 03:25:56;;;;;;;2.27;2.17;;;15.20;80.90;15.40;96328.00;;;;5025467;28;20939;-79
2023/05/13 03:28:24;;;;;;;2.43;2.23;;;15.20;81.00;15.40;96327.00;;;;5019216;28;20203;-78
2023/05/13 03:30:51;;;;;;;2.60;2.40;;;15.20;81.10;15.40;96326.00;;;;5028211;28;20289;-80
2023/05/13 03:33:19;;;;;;;2.37;2.17;;;15.20;81.30;15.40;96331.00;;;;5039461;28;20284;-78
2023/05/13 03:35:47;;;;;;;2.50;2.40;;;15.20;81.00;15.40;96326.00;;;;5030091;28;20215;-78
2023/05/13 03:38:15;;;;;;;2.40;2.30;;;15.20;80.90;15.40;96331.00;;;;5049185;28;20236;-78
2023/05/13 03:40:44;;;;;;;2.23;2.13;;;15.20;80.90;15.40;96339.00;;;;5049685;28;20295;-77
2023/05/13 03:43:11;;;;;;;2.07;1.97;;;15.20;81.10;15.40;96332.00;;;;5027171;28;20204;-78
2023/05/13 03:45:38;;;;;;;2.13;2.03;;;15.20;81.20;15.40;96341.00;;;;5032732;28;20201;-78
2023/05/13 03:48:08;;;;;;;2.03;1.93;;;15.20;81.10;15.40;96341.00;;;;5046398;28;20296;-79
2023/05/13 03:50:35;;;;;;;2.27;2.17;;;15.20;81.10;15.40;96339.00;;;;5048880;28;20224;-78
2023/05/13 03:53:04;;;;;;;2.13;2.03;;;15.20;81.10;15.40;96348.00;;;;5031641;28;20281;-78
2023/05/13 03:55:31;;;;;;;2.20;2.10;;;15.20;81.30;15.40;96348.00;;;;5018991;28;20272;-79
2023/05/13 03:58:11;;;;;;;2.43;2.33;;;15.20;81.70;15.40;96351.00;;;;5048146;28;20222;-78
2023/05/13 04:00:39;;;;;;;2.30;2.20;;;15.20;81.90;15.40;96345.00;;;;5019865;28;20205;-80
2023/05/13 04:03:06;;;;;;;2.47;2.37;;;15.20;82.00;15.40;96353.00;;;;5048616;28;20206;-78
2023/05/13 04:05:34;;;;;;;2.37;2.27;;;15.20;82.10;15.30;96352.00;;;;5055860;28;20231;-79
2023/05/13 04:08:01;;;;;;;2.20;2.10;;;15.20;82.20;15.30;96348.00;;;;5058122;28;20213;-78
2023/05/13 04:10:28;;;;;;;2.30;2.20;;;15.20;82.20;15.30;96356.00;;;;5056144;28;20197;-79
2023/05/13 04:12:56;;;;;;;2.50;2.40;;;15.20;82.20;15.30;96351.00;;;;5053710;28;20679;-79
2023/05/13 04:15:25;;;;;;;2.40;2.30;;;15.20;82.30;15.30;96355.00;;;;5037471;28;20225;-79
2023/05/13 04:17:53;;;;;;;2.50;2.40;;;15.20;82.30;15.30;96357.00;;;;5041686;28;20224;-79
2023/05/13 04:20:21;;;;;;;2.40;2.30;;;15.20;82.30;15.30;96365.00;;;;5051075;28;20200;-78
2023/05/13 04:22:49;;;;;;;2.83;2.63;;;15.10;82.50;15.20;96363.00;;;;5055751;28;20200;-80
2023/05/13 04:25:17;;;;;;;3.17;2.97;;;15.10;82.60;15.20;96361.00;;;;5023020;28;20230;-79
2023/05/13 04:27:46;;;;;;;2.53;2.40;;;15.10;82.60;15.20;96360.00;;;;5062925;28;20311;-80
2023/05/13 04:30:14;;;;;;;2.67;2.57;;;15.10;82.50;15.20;96368.00;;;;5064116;28;20645;-79
2023/05/13 04:32:44;;;;;;;2.43;2.30;;;15.10;82.60;15.20;96365.00;;;;5050031;28;20204;-79
2023/05/13 04:35:12;;;;;;;2.70;2.50;;;15.10;82.90;15.20;96369.00;;;;5068125;28;20206;-79
2023/05/13 04:37:40;;;;;;;3.00;2.80;;;15.10;83.80;15.20;96371.00;;;;5053691;28;20248;-78
2023/05/13 04:40:08;;;;;;;2.97;2.77;;;15.10;83.20;15.20;96383.00;;;;5036365;28;20193;-79
2023/05/13 04:42:36;;;;;;;3.00;2.80;;;15.10;83.30;15.20;96376.00;;;;5023144;28;20242;-81
2023/05/13 04:45:05;;;;;;;2.70;2.50;;;15.10;83.20;15.20;96382.00;;;;5043781;28;20201;-79
2023/05/13 04:47:34;;;;;;;2.63;2.50;;;15.10;83.00;15.20;96381.00;;;;5054546;28;20689;-79
2023/05/13 04:50:02;;;;;;;2.70;2.60;;;15.10;83.00;15.20;96380.00;;;;5055134;28;20204;-79
2023/05/13 04:52:30;;;;;;;2.20;2.10;;;15.10;83.10;15.20;96387.00;;;;5049704;28;20284;-78
2023/05/13 04:54:57;;;;;;;2.10;2.00;;;15.10;83.20;15.20;96382.00;;;;5048269;28;20212;-78
2023/05/13 04:57:25;;;;;;;2.37;2.20;;;15.00;83.10;15.10;96385.00;;;;5009770;28;20275;-79
2023/05/13 04:59:52;;;;;;;2.30;2.20;;;15.00;83.00;15.20;96389.00;;;;5029978;28;20208;-78
2023/05/13 05:02:20;;;;;;;2.40;2.30;;;15.00;83.00;15.10;96393.00;;;;5030541;28;20197;-79
2023/05/13 05:04:48;;;;;;;2.40;2.20;;;15.00;83.10;15.10;96393.00;;;;5024224;28;20193;-78
2023/05/13 05:07:17;;;;;;;2.20;2.10;;;15.00;83.20;15.10;96398.00;;;;5054508;28;20697;-80
2023/05/13 05:09:44;;;;;;;2.20;2.10;;;15.00;83.20;15.10;96393.00;;;;5055296;28;20677;-79
2023/05/13 05:12:11;;;;;;;2.23;2.13;;;15.00;83.20;15.10;96395.00;;;;5045303;28;20623;-79
2023/05/13 05:14:38;;;;;;;2.00;1.90;;;15.00;83.20;15.10;96397.00;;;;5036881;28;20190;-79
2023/05/13 05:17:06;;;;;;;1.97;1.87;;;15.00;83.20;15.10;96402.00;;;;5031958;28;20307;-78
2023/05/13 05:19:33;;;;;;;1.87;1.77;;;15.00;83.30;15.10;96389.00;;;;5037954;28;20207;-79
2023/05/13 05:22:06;;;;;;;2.00;1.90;;;15.00;83.50;15.10;96395.00;;;;5055064;28;20296;-78
2023/05/13 05:24:35;;;;;;;1.90;1.80;;;15.00;83.50;15.10;96399.00;;;;5037082;28;20196;-80
2023/05/13 05:27:03;;;;;;;2.30;2.20;;;15.00;83.30;15.10;96400.00;;;;5031748;28;20220;-79
2023/05/13 05:29:31;;;;;;;2.40;2.30;;;15.00;83.40;15.10;96402.00;;;;5012868;28;20219;-79
2023/05/13 05:31:58;;;;;;;2.57;2.47;;;15.00;83.40;15.10;96407.00;;;;5049774;28;20331;-79
2023/05/13 05:34:26;;;;;;;2.70;2.50;;;15.00;83.30;15.10;96407.00;;;;5045400;28;20281;-79
2023/05/13 05:36:53;;;;;;;2.90;2.60;;;15.00;83.30;15.10;96406.00;;;;5020184;28;20293;-79
2023/05/13 05:39:22;;;;;;;2.50;2.40;;;15.00;83.50;15.10;96405.00;;;;5050997;28;20193;-78
2023/05/13 05:41:51;;;;;;;2.70;2.50;;;15.00;83.60;15.10;96407.00;;;;5048684;28;20212;-78
2023/05/13 05:44:18;;;;;;;2.90;2.70;;;15.00;83.60;15.10;96403.00;;;;5052087;28;20276;-79
2023/05/13 05:46:45;;;;;;;2.53;2.33;;;14.90;83.60;15.10;96402.00;;;;5047723;28;20315;-78
2023/05/13 05:49:12;;;;;;;2.70;2.50;;;15.00;83.90;15.10;96411.00;;;;5031055;28;20208;-78
2023/05/13 05:51:40;;;;;;;2.57;2.47;;;15.00;84.00;15.20;96408.00;;;;5032275;28;20291;-81
2023/05/13 05:54:09;;;;;;;2.90;2.70;;;15.00;83.90;15.20;96413.00;;;;5031426;28;20207;-81
2023/05/13 05:56:36;;;;;;;2.77;2.57;;;15.00;84.00;15.30;96417.00;;;;5037870;28;20217;-81
2023/05/13 05:59:05;;;;;;;2.43;2.33;;;15.00;84.00;15.40;96418.00;;;;5031152;28;20268;-81
2023/05/13 06:01:35;;;;;;;2.17;2.07;;;15.10;84.20;15.40;96415.00;;;;5043296;28;20265;-80
2023/05/13 06:04:02;;;;;;;2.40;2.20;;;15.10;84.10;15.50;96423.00;;;;5055085;28;20193;-82
2023/05/13 06:06:31;;;;;;;2.10;2.00;;;15.20;84.00;15.50;96425.00;;;;5056785;28;20227;-82
2023/05/13 06:08:58;;;;;;;1.90;1.80;;;15.20;83.90;15.50;96424.00;;;;5050183;28;20280;-80
2023/05/13 06:11:26;;;;;;;2.00;1.90;;;15.20;84.00;15.60;96432.00;;;;5044139;28;20929;-83
2023/05/13 06:13:56;;;;;;;1.80;1.70;;;15.20;84.40;15.60;96423.00;;;;5045253;28;20628;-84
2023/05/13 06:16:25;;;;;;;1.73;1.63;;;15.30;83.60;15.60;96420.00;;;;5023057;28;20686;-81
2023/05/13 06:18:52;;;;;;;1.60;1.50;;;15.30;83.40;15.60;96419.00;;;;5037596;28;20245;-81
2023/05/13 06:21:19;;;;;;;2.17;2.07;;;15.30;83.40;15.70;96421.00;;;;5031824;28;20192;-82
2023/05/13 06:23:48;;;;;;;1.60;1.50;;;15.30;83.50;15.70;96428.00;;;;5014341;28;20228;-82
2023/05/13 06:26:17;;;;;;;1.50;1.40;;;15.40;83.50;15.70;96420.00;;;;5017217;28;20665;-81
2023/05/13 06:28:44;;;;;;;1.67;1.57;;;15.40;83.30;15.70;96429.00;;;;5041609;28;20223;-83
2023/05/13 06:31:11;;;;;;;1.77;1.67;;;15.40;83.20;15.70;96429.00;;;;5048930;28;20200;-83
2023/05/13 06:33:40;;;;;;;1.80;1.70;;;15.40;83.30;15.80;96433.00;;;;5034004;28;20229;-81
2023/05/13 06:36:09;;;;;;;1.80;1.70;;;15.40;83.10;15.80;96431.00;;;;5026628;28;20730;-82
2023/05/13 06:38:38;;;;;;;1.33;1.30;;;15.40;83.00;15.80;96426.00;;;;5046968;28;20224;-83
2023/05/13 06:41:09;;;;;;;1.20;1.20;;;15.50;83.20;15.90;96430.00;;;;5040687;28;20207;-83
2023/05/13 06:43:37;;;;;;;1.63;1.47;;;15.50;83.20;15.90;96436.00;;;;5043260;28;20220;-83
2023/05/13 06:46:05;;;;;;;1.30;1.30;;;15.50;83.20;16.00;96432.00;;;;5046321;28;20221;-81
2023/05/13 06:48:33;;;;;;;1.60;1.50;;;15.60;83.20;16.00;96435.00;;;;5034554;28;20259;-83
2023/05/13 06:51:01;;;;;;;1.43;1.43;;;15.60;82.90;16.00;96429.00;;;;5041739;28;20696;-83
2023/05/13 06:53:30;;;;;;;1.70;1.60;;;15.60;82.70;16.00;96429.00;;;;5027880;28;20664;-80
2023/05/13 06:55:58;;;;;;;1.40;1.30;;;15.60;82.60;16.00;96432.00;;;;5038354;28;20681;-82
2023/05/13 06:58:26;;;;;;;1.40;1.30;;;15.70;82.30;16.00;96443.00;;;;5015415;28;20221;-82
2023/05/13 07:00:56;;;;;;;1.40;1.30;;;15.70;82.30;16.10;96440.00;;;;5042520;28;20256;-81
2023/05/13 07:03:25;;;;;;;1.40;1.30;;;15.70;82.10;16.10;96435.00;;;;5047101;28;20561;-81
2023/05/13 07:05:54;;;;;;;1.40;1.30;;;15.70;82.00;16.10;96437.00;;;;5044087;28;20247;-83
2023/05/13 07:08:23;;;;;;;1.23;1.23;;;15.70;82.00;16.10;96440.00;;;;5024894;28;20225;-84
2023/05/13 07:10:50;;;;;;;1.47;1.37;;;15.80;82.20;16.10;96440.00;;;;5048170;28;20616;-82
2023/05/13 07:13:19;;;;;;;1.20;1.20;;;15.80;82.20;16.20;96444.00;;;;5042620;28;20280;-84
2023/05/13 07:15:47;;;;;;;1.50;1.40;;;15.80;82.00;16.20;96449.00;;;;5048749;28;20403;-80
2023/05/13 07:18:14;;;;;;;1.30;1.20;;;15.80;82.00;16.20;96445.00;;;;5040574;28;20601;-83
2023/05/13 07:20:41;;;;;;;1.00;1.00;;;15.80;82.00;16.20;96452.00;;;;5050667;28;20211;-81
2023/05/13 07:23:12;;;;;;;1.03;1.03;;;15.90;82.30;16.20;96448.00;;;;5046059;28;20197;-82
2023/05/13 07:25:48;;;;;;;1.23;1.07;;;15.90;82.20;16.30;96448.00;;;;5035165;28;20223;-83
2023/05/13 07:28:16;;;;;;;1.37;1.37;;;15.90;82.00;16.30;96449.00;;;;5043794;28;20228;-82
2023/05/13 07:30:44;;;;;;;1.03;1.03;;;15.90;82.30;16.30;96449.00;;;;5051265;28;20212;-83
2023/05/13 07:33:15;;;;;;;1.07;1.00;;;15.90;82.10;16.40;96446.00;;;;5048340;28;20208;-83
2023/05/13 07:35:42;;;;;;;1.00;1.00;;;16.00;81.80;16.40;96447.00;;;;5046210;28;20304;-84
2023/05/13 07:38:11;;;;;;;1.13;1.10;;;16.00;81.60;16.40;96447.00;;;;5038349;28;20225;-84
2023/05/13 07:40:40;;;;;;;1.70;1.60;;;16.00;81.50;16.40;96446.00;;;;5041953;28;20264;-83
2023/05/13 07:43:08;;;;;;;1.00;1.00;;;16.10;81.60;16.50;96451.00;;;;5029908;28;20680;-83
2023/05/13 07:45:37;;;;;;;1.20;1.20;;;16.10;81.70;16.50;96444.00;;;;5036656;28;20197;-82
2023/05/13 07:48:05;;;;;;;1.00;1.00;;;16.10;81.70;16.50;96453.00;;;;5027249;28;20248;-81
2023/05/13 07:50:32;;;;;;;1.13;1.13;;;16.10;81.50;16.50;96455.00;;;;5050877;28;20226;-82
2023/05/13 07:53:00;;;;;;;1.20;1.20;;;16.20;81.50;16.50;96458.00;;;;5044304;28;20257;-79
2023/05/13 07:55:27;;;;;;;1.27;1.00;;;16.10;81.50;16.50;96461.00;;;;5056733;28;20228;-81
2023/05/13 07:57:56;;;;;;;2.40;1.07;;;16.20;81.60;16.60;96468.00;;;;5014753;28;20640;-81
2023/05/13 08:00:24;;;;;;;1.27;1.17;;;16.20;81.50;16.60;96467.00;;;;5056126;28;20268;-83
2023/05/13 08:02:52;;;;;;;1.43;1.00;;;16.20;81.60;16.60;96467.00;;;;5057702;28;20193;-82
2023/05/13 08:05:19;;;;;;;0.80;0.80;;;16.20;81.70;16.70;96458.00;;;;5030503;28;20197;-83
2023/05/13 08:07:48;;;;;;;1.07;1.07;;;16.30;81.70;16.80;96462.00;;;;5027330;28;20224;-83
2023/05/13 08:10:29;;;;;;;0.90;0.90;;;16.30;81.70;16.80;96460.00;;;;5062071;28;20612;-82
2023/05/13 08:13:01;;;;;;;1.07;1.03;;;16.30;81.60;16.80;96467.00;;;;5047225;28;20204;-83
2023/05/13 08:15:28;;;;;;;0.90;0.90;;;16.40;81.50;16.90;96466.00;;;;5064391;28;20199;-81
2023/05/13 08:17:57;;;;;;;0.90;0.90;;;16.40;81.10;16.90;96463.00;;;;5042136;28;20239;-83
2023/05/13 08:20:28;;;;;;;0.90;0.90;;;16.40;81.10;16.90;96465.00;;;;5062800;28;20200;-84
2023/05/13 08:22:57;;;;;;;1.03;1.00;;;16.50;80.90;16.90;96466.00;;;;5044638;28;20202;-83
2023/05/13 08:25:24;;;;;;;0.93;0.93;;;16.50;81.00;17.00;96466.00;;;;5040765;28;20208;-83
2023/05/13 08:27:52;;;;;;;0.83;0.83;;;16.50;81.00;17.00;96465.00;;;;5049036;28;20241;-84
2023/05/13 08:30:21;;;;;;;1.07;1.07;;;16.60;80.90;17.00;96471.00;;;;5064378;28;20201;-83
2023/05/13 08:32:48;;;;;;;0.90;0.90;;;16.60;80.90;17.10;96465.00;;;;5066035;28;20185;-83
2023/05/13 08:35:16;;;;;;;1.00;1.00;;;16.60;80.90;17.10;96462.00;;;;5023226;28;20209;-83
2023/05/13 08:37:44;;;;;;;1.00;1.00;;;16.70;81.00;17.20;96468.00;;;;5056763;28;20224;-84
2023/05/13 08:40:12;;;;;;;1.50;1.10;;;16.70;81.10;17.30;96467.00;;;;5061700;28;20197;-82
2023/05/13 08:42:43;;;;;;;1.50;1.40;;;16.80;81.40;17.40;96468.00;;;;5056527;28;20252;-82
2023/05/13 08:45:13;;;;;;;0.90;0.90;;;16.80;81.40;17.50;96471.00;;;;5039484;28;20673;-83
2023/05/13 08:47:51;;;;;;;1.30;1.20;;;16.90;81.10;17.50;96478.00;;;;5031102;28;20216;-84
2023/05/13 08:50:19;;;;;;;1.20;1.20;;;17.00;80.80;17.60;96490.00;;;;5045674;28;20283;-84
2023/05/13 08:52:47;;;;;;;1.00;1.00;;;17.00;81.10;17.60;96490.00;;;;5023094;28;20210;-84
2023/05/13 08:55:15;;;;;;;1.00;1.00;;;17.10;81.00;17.60;96490.00;;;;5059499;28;20544;-83
2023/05/13 08:57:44;;;;;;;1.27;1.17;;;17.10;80.80;17.60;96484.00;;;;5055430;28;20244;-83
2023/05/13 09:00:15;;;;;;;1.33;1.20;;;17.10;80.20;17.60;96483.00;;;;5065314;28;20265;-84
2023/05/13 09:02:44;;;;;;;1.43;1.30;;;17.20;80.10;17.60;96478.00;;;;5072024;28;20254;-84
2023/05/13 09:05:12;;;;;;;1.10;1.10;;;17.20;79.80;17.60;96479.00;;;;5046574;28;20193;-83
2023/05/13 09:07:39;;;;;;;1.20;1.20;;;17.20;80.10;17.70;96484.00;;;;5050223;28;20240;-84
2023/05/13 09:10:09;;;;;;;1.23;1.23;;;17.20;79.80;17.70;96480.00;;;;5050574;28;20192;-83
2023/05/13 09:12:47;;;;;;;1.07;1.07;;;17.20;79.20;17.70;96479.00;;;;5032244;28;20225;-83
2023/05/13 09:15:17;;;;;;;1.37;1.37;;;17.20;78.90;17.70;96484.00;;;;5056530;28;20227;-83
2023/05/13 09:17:51;;;;;;;1.10;1.10;;;17.20;79.70;17.70;96486.00;;;;5074332;28;20278;-84
2023/05/13 09:20:21;;;;;;;1.40;1.33;;;17.20;79.10;17.70;96486.00;;;;5051447;28;20216;-83
2023/05/13 09:22:50;;;;;;;1.50;1.40;;;17.30;79.40;17.70;96475.00;;;;5051381;28;20184;-84
2023/05/13 09:25:22;;;;;;;1.60;1.50;;;17.30;79.30;17.70;96480.00;;;;5043366;28;20185;-84
2023/05/13 09:27:56;;;;;;;1.73;1.63;;;17.30;79.10;17.70;96485.00;;;;5058559;28;20315;-82
2023/05/13 09:30:26;;;;;;;1.50;1.40;;;17.30;79.00;17.70;96485.00;;;;5035306;28;20193;-83
2023/05/13 09:33:10;;;;;;;1.40;1.30;;;17.30;79.20;17.80;96488.00;;;;5048537;28;20268;-82
2023/05/13 09:35:39;;;;;;;1.43;1.33;;;17.30;77.90;17.80;96483.00;;;;5035289;28;20211;-84
2023/05/13 09:38:15;;;;;;;1.40;1.30;;;17.30;79.10;17.80;96484.00;;;;5037942;28;20235;-83
2023/05/13 09:40:49;;;;;;;2.53;1.47;;;17.40;78.40;17.80;96484.00;;;;5053662;28;20218;-84
2023/05/13 09:43:18;;;;;;;1.30;1.30;;;17.40;79.20;17.90;96478.00;;;;5036626;28;20224;-84
2023/05/13 09:45:46;;;;;;;1.20;1.20;;;17.40;79.20;17.90;96479.00;;;;5028275;28;20240;-84
2023/05/13 09:48:16;;;;;;;1.40;1.30;;;17.40;79.10;18.00;96478.00;;;;5050548;28;20283;-82
2023/05/13 09:50:52;;;;;;;1.43;1.37;;;17.40;78.80;18.00;96490.00;;;;5058559;28;20817;-84
2023/05/13 09:53:20;;;;;;;1.00;1.00;;;17.50;78.50;18.00;96497.00;;;;5043423;28;20770;-84
2023/05/13 09:55:48;;;;;;;1.60;1.50;;;17.50;78.60;18.00;96493.00;;;;5028647;28;20207;-83
2023/05/13 09:58:15;;;;;;;1.03;1.03;;;17.50;78.40;18.00;96490.00;;;;5038258;28;20316;-82
2023/05/13 10:00:43;;;;;;;1.33;1.10;;;17.50;78.00;18.00;96494.00;;;;5030371;28;20276;-82
2023/05/13 10:03:12;;;;;;;1.03;1.03;;;17.50;78.00;17.90;96491.00;;;;5028945;28;20591;-82
2023/05/13 10:05:47;;;;;;;1.10;1.10;;;17.50;78.00;18.00;96490.00;;;;5044784;28;20232;-84
2023/05/13 10:08:15;;;;;;;1.20;1.20;;;17.50;77.60;18.00;96496.00;;;;5056812;28;20641;-81
2023/05/13 10:10:44;;;;;;;1.30;1.30;;;17.50;78.10;18.00;96486.00;;;;5058529;28;20209;-81
2023/05/13 10:13:16;;;;;;;1.30;1.30;;;17.60;78.10;18.00;96487.00;;;;5033461;28;20208;-81
2023/05/13 10:15:51;;;;;;;1.17;1.17;;;17.60;78.00;18.10;96486.00;;;;5045490;28;20263;-83
2023/05/13 10:18:21;;;;;;;1.13;1.13;;;17.60;77.70;18.10;96484.00;;;;5025571;28;20225;-81
2023/05/13 10:20:51;;;;;;;1.20;0.93;;;17.60;78.10;18.10;96479.00;;;;5036491;28;20278;-81
2023/05/13 10:23:20;;;;;;;1.00;1.00;;;17.60;78.30;18.20;96486.00;;;;5041886;28;20661;-82
2023/05/13 10:25:48;;;;;;;0.90;0.90;;;17.60;78.50;18.20;96484.00;;;;5043263;28;20216;-82
2023/05/13 10:28:16;;;;;;;1.23;0.83;;;17.70;78.10;18.20;96480.00;;;;5052592;28;20288;-81
2023/05/13 10:30:45;;;;;;;0.70;0.70;;;17.70;77.90;18.20;96483.00;;;;5032344;28;20193;-81
2023/05/13 10:33:13;;;;;;;0.80;0.80;;;17.70;77.90;18.20;96489.00;;;;5048698;28;20285;-83
2023/05/13 10:35:58;;;;;;;0.87;0.87;;;17.70;77.60;18.30;96489.00;;;;5041781;28;20204;-83
2023/05/13 10:38:50;;;;;;;0.90;0.90;;;17.70;78.20;18.30;96486.00;;;;5029310;28;20223;-84
2023/05/13 10:42:02;;;;;;;0.57;0.57;;;17.80;77.60;18.40;96487.00;;;;5019282;28;20288;-84
2023/05/13 10:44:30;;;;;;;1.00;1.00;;;17.80;77.80;18.40;96487.00;;;;4998027;28;20225;-83
2023/05/13 10:46:59;;;;;;;0.90;0.90;;;17.90;78.40;18.40;96487.00;;;;5042127;28;20307;-83
2023/05/13 10:49:36;;;;;;;0.80;0.80;;;17.90;78.00;18.40;96486.00;;;;5027074;28;20227;-84
2023/05/13 10:52:19;;;;;;;0.90;0.80;;;17.90;77.10;18.50;96485.00;;;;5037485;28;20196;-83
2023/05/13 10:55:01;;;;;;;0.87;0.87;;;17.90;77.30;18.50;96487.00;;;;5050450;28;20196;-83
2023/05/13 10:57:30;;;;;;;0.70;0.70;;;18.00;77.30;18.50;96489.00;;;;5056036;28;20216;-84
2023/05/13 11:00:14;;;;;;;0.90;0.90;;;18.00;77.80;18.50;96485.00;;;;5058444;28;20218;-83
2023/05/13 11:02:42;;;;;;;1.07;1.07;;;18.00;75.80;18.60;96489.00;;;;5041885;28;20200;-83
2023/05/13 11:05:10;;;;;;;0.87;0.87;;;18.00;77.50;18.80;96493.00;;;;5051703;28;20204;-83